createdAt,value
2019-06-01T00:04:06.113Z,100.00
2019-06-01T00:09:10.188Z,100.00
2019-06-01T00:14:14.287Z,100.00
2019-06-01T00:19:18.324Z,100.00
2019-06-01T00:24:22.794Z,100.00
2019-06-01T00:29:26.849Z,100.00
2019-06-01T00:34:30.940Z,100.00
2019-06-01T00:39:35.055Z,100.00
2019-06-01T00:44:39.091Z,100.00
2019-06-01T00:49:43.203Z,100.00
2019-06-01T00:54:47.409Z,100.00
2019-06-01T00:59:53.664Z,100.00
2019-06-01T01:05:01.739Z,100.00
2019-06-01T01:10:05.918Z,100.00
2019-06-01T01:15:10.086Z,100.00
2019-06-01T01:20:14.131Z,100.00
2019-06-01T01:25:18.255Z,100.00
2019-06-01T01:30:22.475Z,100.00
2019-06-01T01:35:27.336Z,100.00
2019-06-01T01:40:31.360Z,100.00
2019-06-01T01:45:35.433Z,100.00
2019-06-01T01:50:39.554Z,100.00
2019-06-01T01:55:43.628Z,100.00
2019-06-01T02:00:49.355Z,100.00
2019-06-01T02:05:54.893Z,100.00
2019-06-01T02:10:59.554Z,100.00
2019-06-01T02:16:03.632Z,100.00
2019-06-01T02:21:07.993Z,100.00
2019-06-01T02:26:12.051Z,100.00
2019-06-01T02:31:16.174Z,100.00
2019-06-01T02:36:20.238Z,100.00
2019-06-01T02:41:24.267Z,100.00
2019-06-01T02:46:28.927Z,100.00
2019-06-01T02:51:33.026Z,100.00
2019-06-01T02:56:37.108Z,100.00
2019-06-01T03:01:56.038Z,100.00
2019-06-01T03:06:49.511Z,100.00
2019-06-01T03:11:55.856Z,100.00
2019-06-01T03:17:01.727Z,100.00
2019-06-01T03:22:08.880Z,100.00
2019-06-01T03:27:14.880Z,100.00
2019-06-01T03:32:34.120Z,100.00
2019-06-01T03:37:24.662Z,100.00
2019-06-01T03:42:28.857Z,100.00
2019-06-01T03:47:32.968Z,100.00
2019-06-01T03:52:37.002Z,100.00
2019-06-01T03:57:41.023Z,100.00
2019-06-01T04:02:45.071Z,100.00
2019-06-01T04:07:49.182Z,100.00
2019-06-01T04:12:53.242Z,100.00
2019-06-01T04:17:57.311Z,100.00
2019-06-01T04:23:06.175Z,100.00
2019-06-01T04:28:10.357Z,100.00
2019-06-01T04:33:14.485Z,100.00
2019-06-01T04:38:18.515Z,100.00
2019-06-01T04:43:22.583Z,100.00
2019-06-01T04:48:26.600Z,100.00
2019-06-01T04:53:30.613Z,100.00
2019-06-01T04:58:34.650Z,100.00
2019-06-01T05:03:38.716Z,100.00
2019-06-01T05:08:43.296Z,100.00
2019-06-01T05:13:47.316Z,100.00
2019-06-01T05:18:51.351Z,100.00
2019-06-01T05:23:56.050Z,100.00
2019-06-01T05:29:00.182Z,100.00
2019-06-01T05:34:09.720Z,98.94
2019-06-01T05:39:14.443Z,99.08
2019-06-01T05:44:19.254Z,97.76
2019-06-01T05:49:23.655Z,97.37
2019-06-01T05:54:27.768Z,97.43
2019-06-01T05:59:31.836Z,96.17
2019-06-01T06:04:36.684Z,95.70
2019-06-01T06:09:49.920Z,94.14
2019-06-01T06:14:55.207Z,92.38
2019-06-01T06:19:59.279Z,90.60
2019-06-01T06:25:07.440Z,88.28
2019-06-01T06:30:12.800Z,86.15
2019-06-01T06:35:17.431Z,85.62
2019-06-01T06:40:22.149Z,77.58
2019-06-01T06:45:26.295Z,73.08
2019-06-01T06:50:30.596Z,72.21
2019-06-01T06:55:35.559Z,69.87
2019-06-01T07:00:39.693Z,55.98
2019-06-01T07:05:44.082Z,60.73
2019-06-01T07:10:48.255Z,54.26
2019-06-01T07:15:52.801Z,41.05
2019-06-01T07:20:56.872Z,43.26
2019-06-01T07:26:01.354Z,43.03
2019-06-01T07:31:05.791Z,39.27
2019-06-01T07:36:09.915Z,35.65
2019-06-01T07:41:14.376Z,34.93
2019-06-01T07:46:18.587Z,33.83
2019-06-01T07:51:23.225Z,31.90
2019-06-01T07:56:28.679Z,38.11
2019-06-01T08:01:33.038Z,34.68
2019-06-01T08:06:43.908Z,31.82
2019-06-01T08:11:42.968Z,33.75
2019-06-01T08:16:47.117Z,39.54
2019-06-01T08:21:51.163Z,38.98
2019-06-01T08:26:55.247Z,39.62
2019-06-01T08:31:59.339Z,40.53
2019-06-01T08:37:03.443Z,42.91
2019-06-01T08:42:07.529Z,39.40
2019-06-01T08:47:11.647Z,34.83
2019-06-01T08:52:15.742Z,35.43
2019-06-01T08:57:20.102Z,35.26
2019-06-01T09:02:24.580Z,36.16
2019-06-01T09:07:29.064Z,33.98
2019-06-01T09:12:33.355Z,38.19
2019-06-01T09:17:37.523Z,38.19
2019-06-01T09:22:41.595Z,32.33
2019-06-01T09:27:46.102Z,29.53
2019-06-01T09:32:50.230Z,31.81
2019-06-01T09:37:54.323Z,36.16
2019-06-01T09:42:59.681Z,36.16
2019-06-01T09:48:03.839Z,36.92
2019-06-01T09:53:07.977Z,36.64
2019-06-01T09:58:12.032Z,40.88
2019-06-01T10:03:16.256Z,36.79
2019-06-01T10:08:20.441Z,38.11
2019-06-01T10:13:24.478Z,38.88
2019-06-01T10:18:28.555Z,37.41
2019-06-01T10:23:32.645Z,32.60
2019-06-01T10:28:37.810Z,31.44
2019-06-01T10:33:43.197Z,31.95
2019-06-01T10:38:47.367Z,35.55
2019-06-01T10:43:51.407Z,37.54
2019-06-01T10:48:55.456Z,36.72
2019-06-01T10:53:59.487Z,33.60
2019-06-01T10:59:04.514Z,32.10
2019-06-01T11:04:08.558Z,32.98
2019-06-01T11:09:12.706Z,35.27
2019-06-01T11:14:16.778Z,33.52
2019-06-01T11:19:20.974Z,33.16
2019-06-01T11:24:25.044Z,36.76
2019-06-01T11:29:29.226Z,37.43
2019-06-01T11:34:33.962Z,34.53
2019-06-01T11:39:38.505Z,37.67
2019-06-01T11:44:42.922Z,36.90
2019-06-01T11:49:47.415Z,37.31
2019-06-01T11:54:51.545Z,34.59
2019-06-01T11:59:55.694Z,36.02
2019-06-01T12:04:59.758Z,34.10
2019-06-01T12:10:04.394Z,33.82
2019-06-01T12:15:08.996Z,32.87
2019-06-01T12:20:13.282Z,31.06
2019-06-01T12:25:17.487Z,33.20
2019-06-01T12:30:21.799Z,31.35
2019-06-01T12:35:26.103Z,33.21
2019-06-01T12:40:30.124Z,30.90
2019-06-01T12:45:34.155Z,34.41
2019-06-01T12:50:38.192Z,33.60
2019-06-01T12:55:42.859Z,31.75
2019-06-01T13:00:48.274Z,31.01
2019-06-01T13:05:52.535Z,33.38
2019-06-01T13:10:56.679Z,32.33
2019-06-01T13:16:00.733Z,32.76
2019-06-01T13:21:04.866Z,34.90
2019-06-01T13:26:09.158Z,35.19
2019-06-01T13:31:13.265Z,31.82
2019-06-01T13:36:17.385Z,31.58
2019-06-01T13:41:21.438Z,32.01
2019-06-01T13:46:25.687Z,31.52
2019-06-01T13:51:29.712Z,33.19
2019-06-01T13:56:33.817Z,31.15
2019-06-01T14:01:38.005Z,32.20
2019-06-01T14:06:42.121Z,31.94
2019-06-01T14:11:47.378Z,32.30
2019-06-01T14:16:51.919Z,31.39
2019-06-01T14:21:57.049Z,32.82
2019-06-01T14:27:04.502Z,30.19
2019-06-01T14:32:09.320Z,30.01
2019-06-01T14:37:13.637Z,29.49
2019-06-01T14:42:17.691Z,30.46
2019-06-01T14:47:21.749Z,29.16
2019-06-01T14:52:26.770Z,29.73
2019-06-01T14:57:32.070Z,30.43
2019-06-01T15:02:36.836Z,31.00
2019-06-01T15:07:40.971Z,32.71
2019-06-01T15:12:45.232Z,32.05
2019-06-01T15:17:53.338Z,30.91
2019-06-01T15:22:58.424Z,31.24
2019-06-01T15:28:04.076Z,31.70
2019-06-01T15:33:08.413Z,31.71
2019-06-01T15:38:13.500Z,33.23
2019-06-01T15:43:17.679Z,33.42
2019-06-01T15:48:21.711Z,32.02
2019-06-01T15:53:25.745Z,32.95
2019-06-01T15:58:30.064Z,33.50
2019-06-01T16:03:37.599Z,33.98
2019-06-01T16:08:41.853Z,33.34
2019-06-01T16:13:45.945Z,33.09
2019-06-01T16:18:49.981Z,33.94
2019-06-01T16:23:54.143Z,34.32
2019-06-01T16:28:58.559Z,34.11
2019-06-01T16:34:03.129Z,33.70
2019-06-01T16:39:08.335Z,33.08
2019-06-01T16:44:13.003Z,31.65
2019-06-01T16:49:17.248Z,30.73
2019-06-01T16:54:21.362Z,31.41
2019-06-01T16:59:25.816Z,30.26
2019-06-01T17:04:30.253Z,31.64
2019-06-01T17:09:34.313Z,29.95
2019-06-01T17:14:38.424Z,29.98
2019-06-01T17:19:42.458Z,31.72
2019-06-01T17:24:46.592Z,31.86
2019-06-01T17:29:50.731Z,33.05
2019-06-01T17:34:54.904Z,34.05
2019-06-01T17:40:00.046Z,33.52
2019-06-01T17:45:07.726Z,34.15
2019-06-01T17:50:13.970Z,35.00
2019-06-01T17:55:34.802Z,36.03
2019-06-01T18:00:39.659Z,35.94
2019-06-01T18:05:47.751Z,36.86
2019-06-01T18:10:55.979Z,36.15
2019-06-01T18:16:03.010Z,35.32
2019-06-01T18:21:10.490Z,36.00
2019-06-01T18:26:17.227Z,36.10
2019-06-01T18:31:25.788Z,35.67
2019-06-01T18:36:31.451Z,38.52
2019-06-01T18:41:37.636Z,38.69
2019-06-01T18:46:50.636Z,39.96
2019-06-01T18:51:56.764Z,41.58
2019-06-01T18:57:12.222Z,41.94
2019-06-01T19:02:14.585Z,42.99
2019-06-01T19:07:18.832Z,44.63
2019-06-01T19:12:24.524Z,46.17
2019-06-01T19:17:29.326Z,47.14
2019-06-01T19:22:34.532Z,49.60
2019-06-01T19:27:39.229Z,51.92
2019-06-01T19:32:43.696Z,53.78
2019-06-01T19:37:47.742Z,54.40
2019-06-01T19:42:52.145Z,56.40
2019-06-01T19:47:56.684Z,57.70
2019-06-01T19:53:01.229Z,57.66
2019-06-01T19:58:05.674Z,58.40
2019-06-01T20:03:10.296Z,60.11
2019-06-01T20:08:18.173Z,62.16
2019-06-01T20:13:22.602Z,62.87
2019-06-01T20:18:28.645Z,64.24
2019-06-01T20:23:35.067Z,65.66
2019-06-01T20:28:39.789Z,66.21
2019-06-01T20:33:43.862Z,66.51
2019-06-01T20:38:47.940Z,67.61
2019-06-01T20:43:52.045Z,70.12
2019-06-01T20:48:56.235Z,70.97
2019-06-01T20:54:03.291Z,72.93
2019-06-01T20:59:10.791Z,72.04
2019-06-01T21:04:18.055Z,72.47
2019-06-01T21:09:29.272Z,73.36
2019-06-01T21:14:37.116Z,75.46
2019-06-01T21:19:44.873Z,75.59
2019-06-01T21:24:53.215Z,77.54
2019-06-01T21:30:00.515Z,77.22
2019-06-01T21:35:05.410Z,77.10
2019-06-01T21:40:09.919Z,78.89
2019-06-01T21:45:15.415Z,79.74
2019-06-01T21:50:19.998Z,81.82
2019-06-01T21:55:24.733Z,82.20
2019-06-01T22:00:31.237Z,82.32
2019-06-01T22:05:35.442Z,84.13
2019-06-01T22:10:40.560Z,84.26
2019-06-01T22:15:44.776Z,85.32
2019-06-01T22:20:48.815Z,86.34
2019-06-01T22:25:52.941Z,86.35
2019-06-01T22:30:57.077Z,87.39
2019-06-01T22:36:01.182Z,87.26
2019-06-01T22:41:05.267Z,88.90
2019-06-01T22:46:09.817Z,89.28
2019-06-01T22:51:13.969Z,88.82
2019-06-01T22:56:18.083Z,89.11
2019-06-01T23:01:22.905Z,89.06
2019-06-01T23:06:27.103Z,89.99
2019-06-01T23:11:31.689Z,90.93
2019-06-01T23:16:35.849Z,92.12
2019-06-01T23:21:39.982Z,93.24
2019-06-01T23:26:44.502Z,94.02
2019-06-01T23:31:48.976Z,94.29
2019-06-01T23:36:53.064Z,94.67
2019-06-01T23:41:57.156Z,95.24
2019-06-01T23:47:01.242Z,95.77
2019-06-01T23:52:05.381Z,96.22
2019-06-01T23:57:09.766Z,96.92
